WetterOnline ( https://www.wetteronline.de )

Wetter aktuell Baben

Aktuelles Wetter: Seehausen (23m)

6-stündlich | Neueste Meldungen
Ortszeit Temperatur Wetter
So, 29.01. 7:00 0.9° C Sprühregen
So, 29.01. 1:00 0.4° C bedeckt
Sa, 28.01. 19:00 -1.6° C wolkig
Sa, 28.01. 13:00 1.1° C bedeckt
Sa, 28.01. 7:00 0.4° C bedeckt
Sa, 28.01. 1:00 -0.7° C bedeckt
Fr, 27.01. 19:00 -0.3° C wolkenlos
Fr, 27.01. 13:00 3.7° C bewölkt
Ortszeit Temperatur Wetter
So, 29.01. 10:00 1.3° C bedeckt
So, 29.01. 9:40 1.3° C bedeckt
So, 29.01. 9:30 1.1° C wolkig
So, 29.01. 9:20 1.1° C wolkig
So, 29.01. 9:10 1.1° C bedeckt
So, 29.01. 9:00 1.1° C bedeckt
So, 29.01. 8:50 1.1° C bedeckt
So, 29.01. 8:30 1.1° C bewölkt
So, 29.01. 8:00 1.0° C bedeckt
So, 29.01. 7:30 0.9° C bedeckt
So, 29.01. 7:00 0.9° C Sprühregen
Ortszeit Relative Feuchte Sichtweite
So, 29.01. 7:00 88% 13 km
So, 29.01. 1:00 83% 21 km
Sa, 28.01. 19:00 82% 40 km
Sa, 28.01. 13:00 66% 60 km
Sa, 28.01. 7:00 77% >70 km
Sa, 28.01. 1:00 92% 50 km
Fr, 27.01. 19:00 84% 50 km
Fr, 27.01. 13:00 76% 60 km
Ortszeit Relative Feuchte Sichtweite
So, 29.01. 10:00 83% 17 km
So, 29.01. 9:40 83% -
So, 29.01. 9:30 84% 14 km
So, 29.01. 9:20 84% -
So, 29.01. 9:10 84% -
So, 29.01. 9:00 85% 15 km
So, 29.01. 8:50 85% -
So, 29.01. 8:30 86% 14 km
So, 29.01. 8:00 88% 13 km
So, 29.01. 7:30 90% 12 km
So, 29.01. 7:00 88% 13 km
Ortszeit Niederschlagsmenge Niederschlagsart
So, 29.01. 7:00 0.1 l/m2 in 12 Std. Schnee, Regen
So, 29.01. 1:00 0.1 l/m2 in 6 Std. Sprühregen
Sa, 28.01. 19:00 0.0 l/m2 in 12 Std. -
Sa, 28.01. 13:00 0.0 l/m2 in 6 Std. -
Sa, 28.01. 7:00 0.0 l/m2 in 12 Std. -
Sa, 28.01. 1:00 0.0 l/m2 in 6 Std. -
Fr, 27.01. 19:00 0.1 l/m2 in 12 Std. -
Fr, 27.01. 13:00 0.1 l/m2 in 6 Std. Regen
Ortszeit Niederschlagsmenge Niederschlagsart
So, 29.01. 10:00 0.0 l/m2 in 1 Std. Regen
So, 29.01. 9:40 keine Meldung -
So, 29.01. 9:30 0.0 l/m2 in 30 Min -
So, 29.01. 9:20 keine Meldung -
So, 29.01. 9:10 keine Meldung -
So, 29.01. 9:00 0.0 l/m2 in 1 Std. -
So, 29.01. 8:50 keine Meldung -
So, 29.01. 8:30 0.0 l/m2 in 30 Min -
So, 29.01. 8:00 <0.05 l/m2 in 1 Std. Regen
So, 29.01. 7:30 <0.05 l/m2 in 30 Min Schneeregen
So, 29.01. 7:00 <0.05 l/m2 in 1 Std. Schnee, Regen
Ortszeit Stärke Spitze Richtung
km/h Bft. km/h Grad Sektor
So, 29.01. 7:00 17 3 33 250° W
So, 29.01. 1:00 17 3 28 240° SW
Sa, 28.01. 19:00 9 2 20 240° SW
Sa, 28.01. 13:00 11 2 20 300° NW
Sa, 28.01. 7:00 4 1 14 330° NW
Sa, 28.01. 1:00 0 0 11 - -
Fr, 27.01. 19:00 7 2 43 360° N
Fr, 27.01. 13:00 28 4 41 50° NO
Ortszeit Stärke Spitze Richtung
km/h Bft. km/h Grad Sektor
So, 29.01. 10:00 22 4 32 240° SW
So, 29.01. 9:40 20 4 - 240° SW
So, 29.01. 9:30 18 3 32 250° W
So, 29.01. 9:20 18 3 - 250° W
So, 29.01. 9:10 18 3 - 250° W
So, 29.01. 9:00 18 3 29 250° W
So, 29.01. 8:50 18 3 - 250° W
So, 29.01. 8:30 18 3 25 250° W
So, 29.01. 8:00 14 3 25 250° W
So, 29.01. 7:30 15 3 24 250° W
So, 29.01. 7:00 17 3 30 250° W
Ortszeit Untergrenze Bedeckung Gattung
total tief tief mittel hoch
So, 29.01. 7:00 330 m 8/8 8/8 - - -
So, 29.01. 1:00 840 m 8/8 8/8 - - -
Sa, 28.01. 19:00 2700 m 6/8 4/8 - - -
Sa, 28.01. 13:00 810 m 8/8 8/8 - - -
Sa, 28.01. 7:00 840 m 8/8 8/8 - - -
Sa, 28.01. 1:00 810 m 8/8 8/8 - - -
Fr, 27.01. 19:00 - 0/8 0/8 - - -
Fr, 27.01. 13:00 570 m 7/8 7/8 - - -
Ortszeit Bedeckungsgrad in Achtel und Wolkenuntergrenze
So, 29.01. 10:00 7(3900m) 8(4500m)
So, 29.01. 9:40 8
So, 29.01. 9:30 2(720m) 8(4200m) 8(5100m)
So, 29.01. 9:20 2(720m) 8(4200m) 8(5100m)
So, 29.01. 9:10 8
So, 29.01. 9:00 2(690m) 8(1320m) 8(4500m)
So, 29.01. 8:50 2(690m) 8(1320m) 8(4500m)
So, 29.01. 8:30 2(720m) 7(1110m)
So, 29.01. 8:00 6(330m) 8(1320m) 8(4500m)
So, 29.01. 7:30 3(330m) 7(660m) 8(900m)
So, 29.01. 7:00 1(330m) 7(690m) 8(870m)
Ortszeit Luftdruck NN (hPa) Tendenz (hPa in 3 Std.)
So, 29.01. 7:00 1026 - 1,1
So, 29.01. 1:00 1027 - 1,1
Sa, 28.01. 19:00 1029 + 0,3
Sa, 28.01. 13:00 1030 + 0,1
Sa, 28.01. 7:00 1029 + 0,2
Sa, 28.01. 1:00 1029 - 0,2
Fr, 27.01. 19:00 1028 + 1,4
Fr, 27.01. 13:00 1027 + 0,7
Ortszeit Luftdruck NN (hPa) Tendenz (hPa in 3 Std.)
So, 29.01. 10:00 1024 - 1,0
So, 29.01. 9:40 1025 keine Meldung
So, 29.01. 9:30 1025 - 0,7
So, 29.01. 9:20 1025 keine Meldung
So, 29.01. 9:10 1025 keine Meldung
So, 29.01. 9:00 1025 - 0,3
So, 29.01. 8:50 1025 keine Meldung
So, 29.01. 8:30 1025 - 0,1
So, 29.01. 8:00 1025 - 0,3
So, 29.01. 7:30 1026 - 0,7
So, 29.01. 7:00 1026 - 1,1
Ortszeit Schneehöhe (cm)
So, 29.01. 7:00 0
So, 29.01. 1:00 0
Sa, 28.01. 19:00 0
Sa, 28.01. 13:00 0
Sa, 28.01. 7:00 0
Sa, 28.01. 1:00 0
Fr, 27.01. 19:00 0
Fr, 27.01. 13:00 0
Ortszeit Schneehöhe (cm)
So, 29.01. 10:00 0
So, 29.01. 9:40 0
So, 29.01. 9:30 0
So, 29.01. 9:20 0
So, 29.01. 9:10 0
So, 29.01. 9:00 0
So, 29.01. 8:50 0
So, 29.01. 8:30 0
So, 29.01. 8:00 0
So, 29.01. 7:30 0
So, 29.01. 7:00 0
Link zu dieser Seite / Seite empfehlen

Das Wetter in ...